METAR Luftfahrt Wetterdaten     EFOU Oulu Airport
Temperatur
64°F Temperatur
59°F Taupunkt
83% Feuchtigkeit



Wind
8 MPS
13 KM/S
4 M/S
7 KTS



160°
SSO
Aktuelle Wetterlage

Klar Klar
Luftdruck 1017.92 (hPa) - 30.06 (inHg)
Sichtweite 6.2 (Meile) - 10 (Km)
Flughafen
Flughafen Code EFOU

Position : Oulu Airport
Entfernung: 83 (mi)

Metar:
EFOU 150550Z AUTO 16007KT CAVOK 18/15 Q1018

Zeit: 15-08-2022 08:50 EEST